Time;durP1;ratioP1;P1;durP2;ratioP2;P2;SDS_P1;SDS_P2;PMS_P1;PMS_P2;Temp;Humidity;BMP_temperature;BMP_pressure;BME280_temperature;BME280_humidity;BME280_pressure;Samples;Min_cycle;Max_cycle;Signal;HPM_P1;HPM_P2
2021/10/25 00:01:58;;;;;;;3.13;1.75;;;;;;;-0.63;68.69;100824.81;5114188;28;20491;-58
2021/10/25 00:04:24;;;;;;;3.25;1.83;;;;;;;-0.64;68.44;100823.09;5095444;28;20401;-57
2021/10/25 00:06:50;;;;;;;3.10;1.67;;;;;;;-0.64;68.46;100819.63;5114444;28;20039;-56
2021/10/25 00:09:15;;;;;;;3.75;1.70;;;;;;;-0.75;69.28;100810.13;5114305;28;20054;-55
2021/10/25 00:11:41;;;;;;;3.13;2.00;;;;;;;-0.67;69.29;100838.09;5113948;28;20043;-57
2021/10/25 00:14:07;;;;;;;4.25;1.88;;;;;;;-0.96;69.11;100779.84;5113770;28;20036;-57
2021/10/25 00:16:32;;;;;;;5.70;1.75;;;;;;;-0.69;69.26;100822.31;5113784;28;20107;-55
2021/10/25 00:18:58;;;;;;;3.00;1.80;;;;;;;-0.68;69.75;100825.81;5114468;28;20459;-54
2021/10/25 00:21:24;;;;;;;4.28;1.90;;;;;;;-0.72;68.88;100832.91;5113933;28;20080;-55
2021/10/25 00:23:50;;;;;;;3.78;1.95;;;;;;;-0.73;69.10;100826.75;5112614;28;20115;-54
2021/10/25 00:26:15;;;;;;;4.28;2.00;;;;;;;-0.78;69.25;100833.84;5094837;28;20508;-55
2021/10/25 00:28:41;;;;;;;2.55;1.80;;;;;;;-0.77;69.33;100837.38;5114208;28;20122;-55
2021/10/25 00:31:07;;;;;;;4.18;1.80;;;;;;;-0.80;69.95;100843.53;5113988;28;20514;-57
2021/10/25 00:33:33;;;;;;;3.30;1.88;;;;;;;-0.84;69.76;100835.72;5113306;28;20479;-57
2021/10/25 00:35:59;;;;;;;5.95;2.30;;;;;;;-0.85;70.00;100834.88;5094965;28;20028;-55
2021/10/25 00:38:24;;;;;;;4.30;1.83;;;;;;;-0.83;69.77;100848.84;5113449;28;20031;-56
2021/10/25 00:40:50;;;;;;;2.80;1.80;;;;;;;-0.82;69.76;100850.59;5117189;27;20493;-56
2021/10/25 00:43:15;;;;;;;3.78;1.80;;;;;;;-0.80;69.67;100840.91;5131630;27;20019;-55
2021/10/25 00:45:41;;;;;;;7.18;2.20;;;;;;;-0.90;69.75;100834.09;5132053;27;20376;-56
2021/10/25 00:48:07;;;;;;;3.63;2.10;;;;;;;-1.06;69.42;100815.06;5134076;27;20023;-55
2021/10/25 00:50:32;;;;;;;5.30;2.10;;;;;;;-0.88;70.22;100843.66;5133458;27;20031;-54
2021/10/25 00:52:58;;;;;;;5.22;1.98;;;;;;;-0.95;69.88;100849.06;5132506;27;20043;-57
2021/10/25 00:55:24;;;;;;;3.55;1.80;;;;;;;-0.94;69.60;100845.56;5132704;27;20038;-56
2021/10/25 00:57:49;;;;;;;3.85;1.98;;;;;;;-1.30;70.32;100797.03;5128211;27;20031;-53
2021/10/25 01:00:15;;;;;;;3.38;2.00;;;;;;;-0.99;70.58;100848.25;5095835;27;20027;-53
2021/10/25 01:02:40;;;;;;;4.00;2.13;;;;;;;-1.02;70.45;100848.31;5131085;27;20110;-57
2021/10/25 01:05:07;;;;;;;3.13;1.92;;;;;;;-1.01;70.81;100865.81;5131030;27;20031;-58
2021/10/25 01:07:33;;;;;;;2.88;2.17;;;;;;;-1.07;70.64;100863.28;5131572;27;20102;-56
2021/10/25 01:10:01;;;;;;;4.45;1.90;;;;;;;-1.05;70.85;100869.38;5130929;27;20388;-58
2021/10/25 01:12:26;;;;;;;5.53;2.33;;;;;;;-1.09;70.59;100871.19;5130439;27;20376;-59
2021/10/25 01:14:52;;;;;;;3.33;2.15;;;;;;;-1.08;70.69;100875.53;5128881;27;20034;-56
2021/10/25 01:17:17;;;;;;;6.60;2.15;;;;;;;-1.14;71.00;100866.88;5130971;27;20471;-55
2021/10/25 01:19:43;;;;;;;3.05;1.95;;;;;;;-1.10;70.74;100882.59;5133048;27;20383;-56
2021/10/25 01:22:08;;;;;;;3.03;1.80;;;;;;;-1.11;70.75;100886.09;5130917;27;20076;-52
2021/10/25 01:24:34;;;;;;;4.03;2.15;;;;;;;-1.10;71.09;100892.22;5112002;28;20028;-56
2021/10/25 01:26:59;;;;;;;6.35;2.55;;;;;;;-1.11;71.30;100880.84;5112549;28;20034;-56
2021/10/25 01:29:25;;;;;;;7.30;2.50;;;;;;;-1.08;71.05;100888.69;5113121;28;20070;-55
2021/10/25 01:31:50;;;;;;;4.93;2.40;;;;;;;-1.18;71.01;100881.84;5111373;28;20032;-56
2021/10/25 01:34:16;;;;;;;6.18;2.15;;;;;;;-1.36;70.87;100854.94;5111504;28;20035;-57
2021/10/25 01:36:42;;;;;;;3.03;2.28;;;;;;;-1.15;71.04;100889.69;5112212;28;20054;-56
2021/10/25 01:39:08;;;;;;;3.13;2.28;;;;;;;-1.16;71.53;100887.94;5112361;28;20031;-57
2021/10/25 01:41:34;;;;;;;3.58;2.22;;;;;;;-1.22;71.06;100886.25;5111733;28;20035;-59
2021/10/25 01:44:00;;;;;;;4.57;2.45;;;;;;;-1.22;71.63;100888.91;5111728;28;20101;-54
2021/10/25 01:46:25;;;;;;;4.55;2.17;;;;;;;-1.21;71.35;100900.25;5112467;28;20028;-54
2021/10/25 01:48:51;;;;;;;3.83;2.42;;;;;;;-1.23;71.43;100908.19;5111808;28;20050;-56
2021/10/25 01:51:18;;;;;;;7.25;2.55;;;;;;;-1.24;71.68;100908.19;5111383;28;20451;-53
2021/10/25 01:53:45;;;;;;;3.88;2.10;;;;;;;-1.22;71.39;100911.66;5112034;28;20324;-56
2021/10/25 01:56:11;;;;;;;4.35;2.65;;;;;;;-1.24;71.48;100913.44;5111941;28;20115;-52
2021/10/25 01:58:38;;;;;;;5.03;2.80;;;;;;;-1.26;71.24;100923.09;5099138;28;20027;-56
2021/10/25 02:01:04;;;;;;;4.32;2.20;;;;;;;-1.27;71.57;100919.63;5103645;28;20024;-55
2021/10/25 02:03:34;;;;;;;4.95;2.50;;;;;;;-1.41;72.11;100895.28;5112146;28;20088;-53
2021/10/25 02:06:00;;;;;;;3.90;2.50;;;;;;;-1.27;71.56;100918.75;5093744;28;20046;-56
2021/10/25 02:08:26;;;;;;;4.82;2.55;;;;;;;-1.32;71.84;100916.19;5111897;27;20623;-56
2021/10/25 02:10:52;;;;;;;3.90;2.30;;;;;;;-1.30;71.60;100931.03;5132215;27;20051;-57
2021/10/25 02:13:19;;;;;;;4.82;2.53;;;;;;;-1.32;71.90;100935.44;5113769;27;20050;-56
2021/10/25 02:15:45;;;;;;;3.53;2.17;;;;;;;-1.33;71.66;100938.97;5132763;27;20043;-55
2021/10/25 02:18:12;;;;;;;4.25;2.67;;;;;;;-1.40;71.83;100924.19;5130883;27;20102;-52
2021/10/25 02:20:41;;;;;;;4.38;2.40;;;;;;;-1.27;72.24;100950.28;5131786;27;20023;-55
2021/10/25 02:23:08;;;;;;;4.65;2.50;;;;;;;-1.26;71.79;100955.53;5132333;27;20100;-57
2021/10/25 02:25:34;;;;;;;3.17;2.22;;;;;;;-1.24;71.52;100966.00;5132295;27;20027;-55
2021/10/25 02:28:02;;;;;;;3.95;2.63;;;;;;;-1.27;71.36;100963.41;5132219;27;20023;-57
2021/10/25 02:30:27;;;;;;;4.50;2.55;;;;;;;-1.58;71.43;100909.50;5131933;27;20118;-52
2021/10/25 02:32:53;;;;;;;6.43;2.92;;;;;;;-1.33;71.41;100949.47;5131723;27;20106;-59
2021/10/25 02:35:19;;;;;;;4.30;2.60;;;;;;;-1.33;72.15;100957.34;5132196;27;20027;-56
2021/10/25 02:37:44;;;;;;;7.95;2.60;;;;;;;-1.30;71.93;100951.19;5131865;27;20070;-55
2021/10/25 02:40:11;;;;;;;4.68;2.60;;;;;;;-1.30;72.04;100953.84;5126348;27;20027;-57
2021/10/25 02:42:37;;;;;;;4.70;2.55;;;;;;;-1.35;71.69;100943.38;5111140;28;20050;-57
2021/10/25 02:45:03;;;;;;;6.47;2.80;;;;;;;-1.32;72.17;100950.34;5111450;28;20023;-56
2021/10/25 02:47:28;;;;;;;4.65;2.40;;;;;;;-1.33;72.06;100961.72;5111415;28;20474;-54
2021/10/25 02:49:54;;;;;;;4.07;2.92;;;;;;;-1.35;72.05;100960.88;5111038;28;20034;-56
2021/10/25 02:52:19;;;;;;;4.88;3.30;;;;;;;-1.37;72.04;100954.78;5110605;28;20384;-50
2021/10/25 02:54:45;;;;;;;5.03;2.85;;;;;;;-1.41;71.74;100958.34;5110872;28;20043;-56
2021/10/25 02:57:11;;;;;;;6.00;3.00;;;;;;;-1.69;72.76;100922.78;5110728;28;20092;-57
2021/10/25 02:59:36;;;;;;;7.38;2.90;;;;;;;-1.41;72.30;100976.72;5110770;28;20443;-56
2021/10/25 03:02:02;;;;;;;5.97;3.53;;;;;;;-1.68;72.39;100937.66;5110869;28;20437;-54
2021/10/25 03:04:28;;;;;;;4.53;2.83;;;;;;;-1.45;72.59;100976.78;5111006;28;20415;-55
2021/10/25 03:06:53;;;;;;;5.45;3.13;;;;;;;-1.48;72.17;100983.81;5110671;28;20062;-54
2021/10/25 03:09:19;;;;;;;5.18;3.15;;;;;;;-1.50;72.54;100989.09;5094719;28;20044;-53
2021/10/25 03:11:44;;;;;;;5.25;3.40;;;;;;;-1.53;72.32;100977.75;5114718;28;20044;-54
2021/10/25 03:14:10;;;;;;;6.80;3.50;;;;;;;-1.53;72.28;100983.00;5114848;28;20027;-54
2021/10/25 03:16:35;;;;;;;6.20;3.35;;;;;;;-1.51;72.58;100981.22;5115524;28;20031;-56
2021/10/25 03:19:01;;;;;;;6.45;3.60;;;;;;;-1.53;72.72;100969.88;5114968;28;20027;-55
2021/10/25 03:21:27;;;;;;;5.20;3.35;;;;;;;-1.55;72.58;100982.16;5114694;28;20145;-56
2021/10/25 03:23:54;;;;;;;5.95;3.28;;;;;;;-1.55;72.58;100979.53;5109914;28;20467;-58
2021/10/25 03:26:20;;;;;;;6.70;3.67;;;;;;;-1.60;72.54;100984.81;5094232;28;20115;-56
2021/10/25 03:28:45;;;;;;;5.22;3.45;;;;;;;-1.65;72.30;100987.53;5075602;28;20445;-57
2021/10/25 03:31:11;;;;;;;5.97;3.67;;;;;;;-1.63;72.60;100992.75;5094217;28;20046;-55
2021/10/25 03:33:38;;;;;;;4.97;3.40;;;;;;;-1.75;72.52;100976.25;5076451;28;20032;-57
2021/10/25 03:36:06;;;;;;;6.75;4.00;;;;;;;-1.64;72.80;100991.88;5093869;28;20024;-56
2021/10/25 03:38:33;;;;;;;6.28;3.72;;;;;;;-1.84;72.94;100968.47;5094367;28;20020;-59
2021/10/25 03:41:00;;;;;;;6.20;3.45;;;;;;;-1.60;73.28;101006.72;5076231;28;20482;-54
2021/10/25 03:43:30;;;;;;;7.43;3.80;;;;;;;-1.59;73.52;101007.56;5075719;28;20028;-54
2021/10/25 03:48:55;;;;;;;5.43;3.78;;;;;;;-1.52;72.25;101016.25;5064789;28;20094;-53
2021/10/25 03:51:20;;;;;;;7.32;3.70;;;;;;;-1.51;72.42;101002.22;5094526;28;20031;-54
2021/10/25 03:53:55;;;;;;;5.22;3.33;;;;;;;-1.48;72.51;100997.81;5093627;28;20467;-57
2021/10/25 04:12:46;;;;;;;5.55;3.53;;;;;;;-1.45;71.51;101007.41;5093397;28;20384;-57
2021/10/25 04:29:04;;;;;;;5.47;3.70;;;;;;;-1.42;71.69;101028.41;5075330;28;20039;-55
2021/10/25 04:31:29;;;;;;;6.28;4.43;;;;;;;-1.41;72.09;101031.91;5113828;28;20073;-58
2021/10/25 04:33:55;;;;;;;7.68;3.88;;;;;;;-1.37;71.92;101039.75;5112942;28;20039;-57
2021/10/25 04:36:20;;;;;;;5.90;3.72;;;;;;;-1.33;72.33;101040.56;5113070;28;20036;-59
2021/10/25 04:38:46;;;;;;;5.70;4.05;;;;;;;-1.25;71.78;101041.34;5113593;28;20020;-57
2021/10/25 04:41:11;;;;;;;5.07;3.85;;;;;;;-1.15;72.21;101047.38;5113394;28;20037;-56
2021/10/25 04:43:39;;;;;;;5.97;3.63;;;;;;;-1.11;71.71;101009.63;5112757;28;20034;-59
2021/10/25 04:46:05;;;;;;;6.22;4.10;;;;;;;-0.82;71.19;101032.03;5113458;28;20080;-58
2021/10/25 04:48:30;;;;;;;6.57;3.90;;;;;;;-0.86;71.09;101004.03;5112748;28;20035;-54
2021/10/25 04:50:56;;;;;;;5.70;3.67;;;;;;;-0.50;70.42;101041.19;5112592;28;20107;-55
2021/10/25 04:53:21;;;;;;;7.60;3.55;;;;;;;-0.51;69.92;101014.94;5112916;28;20035;-56
2021/10/25 04:55:47;;;;;;;6.03;3.45;;;;;;;-0.26;69.07;101044.34;5094301;28;20467;-55
2021/10/25 04:58:12;;;;;;;5.65;4.00;;;;;;;-0.08;69.37;101059.00;5094973;28;20035;-53
2021/10/25 05:00:38;;;;;;;6.20;3.75;;;;;;;-0.02;68.16;101052.72;5112888;28;20031;-57
2021/10/25 05:03:06;;;;;;;5.70;3.92;;;;;;;0.17;68.13;101053.31;5112747;28;20035;-55
2021/10/25 05:05:32;;;;;;;8.20;3.72;;;;;;;0.37;67.55;101060.00;5112741;28;20046;-55
2021/10/25 05:07:58;;;;;;;5.53;3.85;;;;;;;0.48;66.99;101036.03;5112287;28;20089;-53
2021/10/25 05:10:23;;;;;;;4.95;3.60;;;;;;;1.12;65.32;101056.75;5112151;28;20044;-58
2021/10/25 05:12:49;;;;;;;4.68;3.90;;;;;;;1.98;64.16;101055.66;5112579;28;20463;-52
2021/10/25 05:15:14;;;;;;;10.98;3.90;;;;;;;4.41;57.55;101063.44;5112097;28;20027;-57
2021/10/25 05:17:40;;;;;;;6.28;3.63;;;;;;;6.01;50.17;101060.06;5093563;28;20023;-57
2021/10/25 05:20:05;;;;;;;4.45;3.50;;;;;;;5.78;50.15;101065.44;5112710;28;20024;-54
2021/10/25 05:22:31;;;;;;;6.03;3.35;;;;;;;5.73;50.77;101074.47;5112228;28;20039;-56
2021/10/25 05:24:57;;;;;;;4.15;3.13;;;;;;;5.59;50.51;101075.03;5094092;28;20040;-55
2021/10/25 05:27:23;;;;;;;5.45;3.40;;;;;;;5.05;51.47;101076.22;5112940;28;20098;-57
2021/10/25 05:29:48;;;;;;;13.13;4.03;;;;;;;4.51;53.14;101079.03;5112226;28;20161;-56
2021/10/25 05:32:13;;;;;;;4.63;3.65;;;;;;;3.88;53.63;101041.38;5111418;28;20390;-56
2021/10/25 05:34:39;;;;;;;8.88;3.65;;;;;;;3.89;55.12;101079.31;5112128;28;20024;-58
2021/10/25 05:37:05;;;;;;;6.57;3.28;;;;;;;4.06;54.57;101083.22;5112552;28;20463;-58
2021/10/25 05:39:31;;;;;;;5.85;3.25;;;;;;;5.63;51.21;101048.31;5111678;28;20032;-58
2021/10/25 05:41:56;;;;;;;4.13;3.70;;;;;;;9.65;42.05;101073.59;5111660;28;20387;-57
2021/10/25 05:44:22;;;;;;;4.68;2.50;;;;;;;13.15;35.12;101071.13;5112384;28;20028;-59
2021/10/25 05:46:47;;;;;;;2.88;2.55;;;;;;;16.05;29.99;101053.38;5112322;28;20027;-54
2021/10/25 05:49:14;;;;;;;16.13;2.22;;;;;;;18.28;26.37;101056.34;5111700;28;20063;-58
2021/10/25 05:51:40;;;;;;;3.72;2.20;;;;;;;19.79;23.98;101059.91;5111963;28;20024;-55
2021/10/25 05:54:07;;;;;;;3.78;2.03;;;;;;;21.14;22.42;101060.78;5111939;28;20659;-56
2021/10/25 05:56:32;;;;;;;6.88;2.47;;;;;;;21.60;21.50;101058.56;5093722;28;20024;-54
2021/10/25 05:58:59;;;;;;;2.90;2.00;;;;;;;20.70;21.77;101068.00;5111102;28;20519;-55
2021/10/25 06:01:32;;;;;;;5.68;2.78;;;;;;;19.73;22.51;101067.81;5110601;28;20040;-56
2021/10/25 06:04:20;;;;;;;2.90;2.22;;;;;;;18.93;23.62;101063.78;5084013;28;20028;-58
2021/10/25 06:06:45;;;;;;;3.10;2.28;;;;;;;17.25;25.69;101068.31;5082802;28;20425;-55
2021/10/25 06:09:11;;;;;;;4.75;2.42;;;;;;;16.63;26.56;101070.97;5099031;28;20040;-56
2021/10/25 06:11:37;;;;;;;4.68;2.20;;;;;;;16.12;26.96;101073.47;5099630;28;20096;-57
2021/10/25 06:14:05;;;;;;;3.85;2.30;;;;;;;15.20;27.97;101085.44;5100791;28;20079;-54
2021/10/25 06:16:42;;;;;;;4.00;2.28;;;;;;;14.32;29.59;101076.94;5099502;28;20028;-58
2021/10/25 06:19:10;;;;;;;4.18;2.70;;;;;;;13.86;30.01;101075.88;5098736;28;20020;-56
2021/10/25 06:21:36;;;;;;;6.18;2.78;;;;;;;13.12;31.08;101088.31;5099422;28;20024;-55
2021/10/25 06:24:01;;;;;;;3.63;2.63;;;;;;;12.45;32.39;101075.97;5100596;28;20086;-56
2021/10/25 06:26:28;;;;;;;7.55;2.80;;;;;;;12.04;33.00;101099.25;5098620;28;20028;-54
2021/10/25 06:28:53;;;;;;;7.32;2.80;;;;;;;11.32;34.35;101097.59;5099823;28;20023;-56
2021/10/25 06:31:19;;;;;;;5.43;2.80;;;;;;;10.74;35.50;101098.44;5079583;28;20395;-54
2021/10/25 06:33:46;;;;;;;4.30;3.13;;;;;;;10.30;36.15;101093.91;5098108;28;20035;-56
2021/10/25 06:36:13;;;;;;;7.53;3.03;;;;;;;9.55;37.48;101097.31;5083850;28;20019;-58
2021/10/25 06:39:09;;;;;;;7.32;3.42;;;;;;;8.75;39.17;101104.22;5092994;28;20024;-59
2021/10/25 06:41:27;;;;;;;4.93;2.90;;;;;;;7.92;40.89;101081.69;5091201;28;20046;-56
2021/10/25 06:43:53;;;;;;;6.88;2.97;;;;;;;7.51;41.88;101109.44;5079514;28;20028;-56
2021/10/25 06:46:19;;;;;;;5.40;3.60;;;;;;;7.06;42.79;101115.00;5110433;28;20111;-55
2021/10/25 06:48:45;;;;;;;5.93;3.70;;;;;;;6.75;43.89;101127.03;5092352;28;20035;-56
2021/10/25 06:51:11;;;;;;;3.47;3.13;;;;;;;6.85;43.55;101138.13;5110560;28;20097;-60
2021/10/25 06:53:37;;;;;;;6.38;2.88;;;;;;;7.12;43.02;101135.19;5110626;28;20035;-56
2021/10/25 06:56:02;;;;;;;4.25;3.22;;;;;;;6.96;43.34;101140.31;5105733;28;20027;-57
2021/10/25 06:58:28;;;;;;;4.80;3.20;;;;;;;6.79;43.86;101138.41;5107325;28;20035;-59
2021/10/25 07:00:58;;;;;;;6.20;3.17;;;;;;;6.75;44.17;101150.97;5109822;28;20028;-56
2021/10/25 07:03:24;;;;;;;4.78;3.35;;;;;;;6.87;43.60;101141.59;5110833;28;20060;-60
2021/10/25 07:05:49;;;;;;;4.35;2.78;;;;;;;6.95;43.20;101126.13;5110939;28;20024;-57
2021/10/25 07:08:15;;;;;;;3.65;2.75;;;;;;;7.03;43.46;101147.09;5088259;28;20382;-56
2021/10/25 07:10:41;;;;;;;3.88;3.20;;;;;;;7.31;42.63;101143.19;5090247;28;20084;-60
2021/10/25 07:13:07;;;;;;;4.25;2.75;;;;;;;7.57;41.96;101150.00;5083939;28;20070;-57
2021/10/25 07:15:33;;;;;;;3.50;2.90;;;;;;;7.42;42.00;101153.34;5111266;28;20108;-56
2021/10/25 07:18:07;;;;;;;4.35;2.95;;;;;;;6.95;43.40;101149.25;5090633;28;20032;-55
2021/10/25 07:23:30;;;;;;;7.78;3.95;;;;;;;6.36;44.33;101152.63;5109531;28;20387;-57
2021/10/25 08:10:09;;;;;;;11.05;4.25;;;;;;;5.03;48.66;101135.53;5113719;28;20052;-57
2021/10/25 08:12:03;;;;;;;7.15;4.28;;;;;;;5.39;47.71;101144.00;5100177;28;20055;-55
2021/10/25 08:14:32;;;;;;;10.68;3.83;;;;;;;5.58;47.24;101154.78;5094964;28;20065;-57
2021/10/25 08:16:58;;;;;;;6.50;4.13;;;;;;;5.60;47.57;101163.56;5095050;28;20039;-53
2021/10/25 08:19:28;;;;;;;6.95;4.00;;;;;;;5.45;47.11;101157.03;5113505;28;20031;-57
2021/10/25 08:22:05;;;;;;;7.88;3.72;;;;;;;5.32;47.40;101146.00;5113591;28;20027;-60
2021/10/25 08:24:38;;;;;;;6.70;3.90;;;;;;;5.21;47.82;101111.03;5113715;28;20030;-58
2021/10/25 08:27:05;;;;;;;5.07;3.47;;;;;;;5.53;47.02;101152.28;5113853;28;20032;-58
2021/10/25 08:29:32;;;;;;;7.63;4.22;;;;;;;5.69;47.02;101149.94;5113881;28;20031;-57
2021/10/25 08:39:58;;;;;;;8.40;4.70;;;;;;;6.16;45.82;101134.84;5113932;28;20023;-58
2021/10/25 08:42:43;;;;;;;7.70;4.50;;;;;;;6.32;46.03;101145.69;5113590;28;20031;-56
2021/10/25 08:45:13;;;;;;;10.30;5.10;;;;;;;6.50;45.53;101148.50;5095018;28;20823;-55
2021/10/25 08:47:45;;;;;;;6.03;4.65;;;;;;;6.52;44.98;101141.34;5113760;28;20036;-57
2021/10/25 08:50:21;;;;;;;12.82;3.97;;;;;;;6.49;45.15;101152.09;5113086;28;20027;-55
2021/10/25 08:52:47;;;;;;;7.53;4.63;;;;;;;6.25;44.85;101152.19;5113502;28;20383;-58
2021/10/25 08:55:16;;;;;;;8.30;3.97;;;;;;;6.17;45.53;101153.38;5113463;28;20031;-56
2021/10/25 08:57:43;;;;;;;10.23;4.38;;;;;;;6.04;44.81;101136.19;5112834;28;20024;-55
2021/10/25 09:00:13;;;;;;;7.47;3.35;;;;;;;6.28;44.86;101155.59;5113263;28;20027;-56
2021/10/25 09:02:44;;;;;;;6.65;3.75;;;;;;;6.24;45.05;101147.78;5113630;28;20036;-59
2021/10/25 09:05:20;;;;;;;6.63;4.03;;;;;;;6.25;45.12;101153.06;5112840;28;20110;-54
2021/10/25 09:07:50;;;;;;;5.72;3.47;;;;;;;6.22;45.16;101150.53;5111930;28;20425;-57
2021/10/25 09:10:25;;;;;;;8.00;3.40;;;;;;;6.31;44.65;101146.63;5113589;28;20131;-58
2021/10/25 09:12:53;;;;;;;6.45;3.55;;;;;;;6.40;45.04;101150.69;5113108;28;20036;-55
2021/10/25 09:15:19;;;;;;;8.77;3.28;;;;;;;6.43;44.27;101137.25;5094683;28;20109;-53
2021/10/25 09:17:45;;;;;;;6.60;3.38;;;;;;;6.50;44.44;101137.84;5112979;28;20426;-54
2021/10/25 09:20:11;;;;;;;4.60;3.00;;;;;;;6.52;43.94;101130.69;5113092;28;20036;-55
2021/10/25 09:22:37;;;;;;;6.35;3.13;;;;;;;6.51;43.61;101134.25;5112494;28;20332;-55
2021/10/25 09:25:03;;;;;;;4.80;2.42;;;;;;;6.39;43.60;101141.84;5112716;28;20026;-56
2021/10/25 09:27:32;;;;;;;4.40;2.75;;;;;;;6.26;44.14;101135.28;5112588;28;20042;-53
2021/10/25 09:30:14;;;;;;;6.75;2.80;;;;;;;6.21;44.79;101140.81;5112759;28;20062;-58
2021/10/25 09:32:41;;;;;;;3.78;2.33;;;;;;;5.98;44.18;101125.75;5111974;28;20027;-55
2021/10/25 09:35:16;;;;;;;8.40;2.60;;;;;;;5.92;44.28;101126.91;5112429;28;20455;-55
2021/10/25 09:37:48;;;;;;;3.97;2.30;;;;;;;5.89;44.70;101133.19;5112629;28;20027;-55
2021/10/25 09:40:32;;;;;;;3.75;2.53;;;;;;;5.75;45.11;101085.03;5112529;28;20020;-55
2021/10/25 09:43:13;;;;;;;4.10;2.40;;;;;;;5.98;44.49;101115.13;5112036;28;20028;-57
2021/10/25 09:45:54;;;;;;;3.63;2.35;;;;;;;6.15;43.79;101125.97;5112702;28;20024;-53
2021/10/25 09:50:54;;;;;;;7.65;2.90;;;;;;;6.25;44.14;101128.25;5112216;28;20479;-56
2021/10/25 09:53:42;;;;;;;6.03;2.83;;;;;;;6.32;43.51;101119.09;5112277;28;20031;-56
2021/10/25 09:56:10;;;;;;;3.67;2.72;;;;;;;6.10;43.70;101114.66;5112735;28;20066;-58
2021/10/25 09:58:56;;;;;;;4.18;2.95;;;;;;;6.09;44.40;101117.38;5100182;28;20065;-56
2021/10/25 10:01:27;;;;;;;8.32;2.90;;;;;;;5.80;44.14;101085.72;5076516;28;20032;-59
2021/10/25 10:03:53;;;;;;;6.13;3.03;;;;;;;5.95;44.24;101116.13;5092166;28;20077;-61
2021/10/25 10:06:20;;;;;;;6.35;3.28;;;;;;;5.82;44.05;101083.00;5102838;28;20023;-57
2021/10/25 10:08:47;;;;;;;4.85;2.90;;;;;;;6.02;43.39;101130.94;5109677;28;20035;-55
2021/10/25 10:11:19;;;;;;;6.07;3.22;;;;;;;5.97;43.83;101124.03;5109754;28;20035;-58
2021/10/25 10:13:45;;;;;;;7.07;3.40;;;;;;;5.62;44.29;101076.69;5111919;28;20050;-62
2021/10/25 10:16:13;;;;;;;6.65;3.47;;;;;;;5.82;44.52;101113.09;5112222;28;20028;-60
2021/10/25 10:18:42;;;;;;;6.90;2.88;;;;;;;5.81;44.03;101108.72;5111480;28;20042;-57
2021/10/25 10:21:11;;;;;;;3.50;2.40;;;;;;;5.75;43.25;101108.94;5111747;28;20038;-56
2021/10/25 10:23:40;;;;;;;5.78;2.25;;;;;;;5.51;42.99;101074.44;5109078;28;20084;-56
2021/10/25 10:26:13;;;;;;;6.25;2.75;;;;;;;5.75;43.15;101106.28;5091882;28;20036;-58
2021/10/25 10:28:45;;;;;;;8.70;2.70;;;;;;;5.74;43.51;101108.09;5073230;28;20055;-57
2021/10/25 10:31:15;;;;;;;6.53;2.45;;;;;;;5.82;42.65;101114.88;5091343;28;20028;-57
2021/10/25 10:33:46;;;;;;;5.45;2.35;;;;;;;5.85;42.85;101105.00;5090495;28;20379;-57
2021/10/25 10:36:18;;;;;;;3.45;2.05;;;;;;;5.90;42.63;101102.13;5090832;28;20548;-58
2021/10/25 10:38:59;;;;;;;2.90;1.85;;;;;;;6.01;41.87;101088.44;5092802;28;20039;-55
2021/10/25 10:41:36;;;;;;;3.47;1.70;;;;;;;6.20;42.62;101093.00;5101288;28;20036;-59
2021/10/25 10:44:07;;;;;;;3.30;1.70;;;;;;;6.26;41.59;101090.06;5109668;28;20058;-57
2021/10/25 10:46:46;;;;;;;2.95;1.92;;;;;;;6.31;41.74;101086.28;5102195;28;20092;-55
2021/10/25 10:49:43;;;;;;;2.28;1.60;;;;;;;6.25;41.54;101086.56;5105061;28;20070;-55
2021/10/25 10:54:57;;;;;;;3.83;2.00;;;;;;;6.00;41.02;101047.69;5083408;28;20102;-54
2021/10/25 10:57:42;;;;;;;4.00;2.20;;;;;;;6.12;41.12;101070.25;5109345;28;20027;-52
2021/10/25 11:00:11;;;;;;;6.05;1.80;;;;;;;6.13;40.99;101077.31;5111368;28;20027;-57
2021/10/25 11:02:52;;;;;;;3.83;1.73;;;;;;;6.18;41.79;101072.66;5109178;28;20043;-56
2021/10/25 11:05:28;;;;;;;3.47;2.20;;;;;;;6.14;41.78;101059.53;5101586;28;20032;-59
2021/10/25 11:07:58;;;;;;;;;;;;;;;6.44;42.14;101070.69;5091825;28;20105;-56
2021/10/25 11:10:28;;;;;;;4.38;2.42;;;;;;;5.98;41.33;101028.28;5090692;28;19923;-59
2021/10/25 11:13:01;;;;;;;4.50;2.80;;;;;;;6.02;41.48;101076.88;5096767;28;20031;-58
2021/10/25 11:15:35;;;;;;;6.07;2.53;;;;;;;5.75;41.45;101045.16;5110885;28;20043;-56
2021/10/25 11:18:02;;;;;;;5.07;2.72;;;;;;;5.69;41.67;101062.25;5110872;28;20115;-57
2021/10/25 11:20:27;;;;;;;5.03;3.00;;;;;;;5.59;41.70;101064.41;5110976;28;20054;-57
2021/10/25 11:23:00;;;;;;;5.40;2.28;;;;;;;5.55;41.92;101057.47;5093117;28;20106;-54
2021/10/25 11:25:26;;;;;;;3.95;2.08;;;;;;;5.53;41.63;101059.31;5110489;28;20023;-60
2021/10/25 11:27:53;;;;;;;4.28;2.10;;;;;;;5.55;41.93;101059.25;5105696;28;20037;-58
2021/10/25 11:30:19;;;;;;;2.92;1.80;;;;;;;5.52;42.04;101046.09;5112370;28;20398;-54
2021/10/25 11:32:45;;;;;;;5.53;1.98;;;;;;;5.58;41.64;101056.47;5114937;28;20032;-59
2021/10/25 11:35:14;;;;;;;4.95;2.10;;;;;;;5.62;41.42;101047.44;5115059;28;20042;-61
2021/10/25 11:37:48;;;;;;;4.20;2.20;;;;;;;5.62;41.73;101054.56;5114711;28;20106;-58
2021/10/25 11:40:17;;;;;;;3.50;2.28;;;;;;;5.62;41.87;101044.78;5113796;28;20036;-58
2021/10/25 11:42:45;;;;;;;4.60;2.88;;;;;;;5.61;41.88;101043.06;5109424;28;20035;-56
2021/10/25 11:45:14;;;;;;;6.93;3.55;;;;;;;5.60;42.58;101036.03;5114498;28;20048;-54
2021/10/25 11:47:48;;;;;;;7.95;2.72;;;;;;;5.57;42.46;101015.78;5095784;28;20383;-55
2021/10/25 11:50:19;;;;;;;7.75;2.55;;;;;;;5.53;42.06;101026.56;5096605;28;20490;-53
2021/10/25 11:52:53;;;;;;;4.43;2.38;;;;;;;5.46;42.11;101024.19;5114798;28;20471;-56
2021/10/25 11:55:30;;;;;;;4.63;2.20;;;;;;;5.38;42.58;101025.41;5096441;28;20067;-59
2021/10/25 11:58:03;;;;;;;8.75;2.83;;;;;;;5.30;42.78;101033.66;5113904;28;20110;-61
2021/10/25 12:00:30;;;;;;;3.90;2.30;;;;;;;5.16;42.71;101028.91;5094822;28;20382;-57
2021/10/25 12:03:13;;;;;;;8.68;2.42;;;;;;;5.20;43.48;101033.16;5114865;28;20023;-52
2021/10/25 12:05:40;;;;;;;4.78;2.70;;;;;;;5.03;43.13;101026.69;5113709;28;20030;-57
2021/10/25 12:08:08;;;;;;;6.65;2.80;;;;;;;4.94;43.29;101023.53;5095909;28;20035;-52
2021/10/25 12:10:35;;;;;;;4.28;2.25;;;;;;;4.89;43.40;101019.25;5096148;28;20388;-54
2021/10/25 12:13:02;;;;;;;6.10;2.60;;;;;;;4.93;43.50;101025.31;5111291;28;20437;-56
2021/10/25 12:15:35;;;;;;;7.00;2.95;;;;;;;4.93;43.83;101000.56;5098694;28;20094;-56
2021/10/25 12:18:04;;;;;;;7.40;2.90;;;;;;;5.08;43.11;101023.88;5093046;28;20028;-59
2021/10/25 12:20:40;;;;;;;6.43;2.47;;;;;;;5.17;43.38;101025.31;5096237;28;20074;-59
2021/10/25 12:23:10;;;;;;;5.95;2.60;;;;;;;5.14;42.74;101018.31;5095551;28;20372;-61
2021/10/25 12:25:37;;;;;;;4.90;2.85;;;;;;;5.08;43.18;101015.06;5113572;28;20525;-59
2021/10/25 12:28:24;;;;;;;6.65;3.00;;;;;;;5.17;43.62;101018.19;5113577;28;20118;-61
2021/10/25 12:30:52;;;;;;;5.63;3.08;;;;;;;4.92;43.19;100973.19;5113529;28;20031;-60
2021/10/25 12:33:24;;;;;;;8.23;3.03;;;;;;;5.19;43.59;101014.66;5113596;28;20070;-58
2021/10/25 12:35:50;;;;;;;4.00;2.67;;;;;;;5.06;44.14;100996.53;5113589;28;20379;-58
2021/10/25 12:38:22;;;;;;;6.38;2.85;;;;;;;5.18;44.23;101003.16;5113496;28;20397;-58
2021/10/25 12:40:59;;;;;;;6.00;2.60;;;;;;;5.25;44.24;101004.63;5113417;28;20375;-58
2021/10/25 12:43:24;;;;;;;4.78;2.80;;;;;;;5.36;44.33;100992.72;5113350;28;20027;-58
2021/10/25 12:46:04;;;;;;;4.47;2.38;;;;;;;5.56;44.07;100987.47;5095208;28;20043;-60
2021/10/25 12:48:44;;;;;;;6.22;2.70;;;;;;;5.74;43.68;100977.88;5095080;28;20108;-59
2021/10/25 12:51:10;;;;;;;7.03;2.78;;;;;;;5.74;42.90;100979.66;5113215;28;20028;-55
2021/10/25 12:53:36;;;;;;;4.85;2.42;;;;;;;5.81;42.82;100978.50;5113202;28;20064;-60
2021/10/25 12:56:02;;;;;;;8.25;3.03;;;;;;;5.86;42.79;100978.28;5112996;28;20027;-57
2021/10/25 12:58:28;;;;;;;4.70;2.83;;;;;;;5.83;42.77;100978.41;5113242;28;20034;-57
2021/10/25 13:00:54;;;;;;;8.98;2.60;;;;;;;5.83;43.04;100984.59;5113474;28;20027;-53
2021/10/25 13:03:28;;;;;;;12.07;2.78;;;;;;;5.77;43.20;100958.25;5112938;28;20032;-59
2021/10/25 13:06:08;;;;;;;5.30;3.20;;;;;;;5.86;43.40;100980.94;5112963;28;20077;-58
2021/10/25 13:08:35;;;;;;;8.40;3.25;;;;;;;5.71;43.46;100963.84;5112990;28;20479;-54